Hovedside
METAR-TAF:

METAR-TAF

Lufthavner :

Ljungbyhed, Sverige

breddegrad: 56-04N, lengdegrad: 013-12E, høyde over havet: 43 m

Gjeldene værobservasjon

Denne rapporten ble laget for 1 time og 10 minutter siden, klokken 09:50 UTC
Vind 10 kt fra Vest-sørvest
Temperatur 7°C
Luftfuktighet 53%
Trykk 1011 hPa
Sikt 10 km eller mer
Spredte skyer i en høyde av 4000 ft

METAR: ESTL 270950Z 24010KT 9999 SCT040 07/M02 Q1011

Tid: 13:00 (11:00 UTC)

Varsel

Denne rapporten ble laget for 2 timer og 59 minutter siden, klokken 08:01 UTC
Varsel gyldig fra 27. klokken 09 UTC til 27. klokken 15 UTC
Vind 10 kt fra Vest-sørvest
Sikt 10 km eller mer
Spredte skyer i en høyde av 3000 ft
Midlertidig
fra 27. klokken 10 UTC til 27. klokken 15 UTC
Spredte skyer i en høyde av 3000 ft, Bygeskyer.
regnbyger

TAF: ESTL 270801Z 2709/2715 25010KT 9999 SCT030 TEMPO 2710/2715 SHRA SCT030CB

Værobservasjoner og værvarsel for over 4000 flyplasser (METAR- og TAF-rapporter).

Tilgjengelige stasjoner er representert av de røde og gule prikkene på kartet.

Hold musepekeren over prikken for å se navnet på stasjonen.

Klikk så for å se værobservasjoner og -varsler.

For å forandre kartet kan du klikke på den grønne knappen med svart kryss for å zoome inn, på den grønne knappen med strek for å zoome ut, eller på de grønne pilene for å se tilstøtende kart.


METAR-TAF: